createdAt,value
2019-02-20T00:00:45.904Z,95.20
2019-02-20T00:05:49.616Z,95.20
2019-02-20T00:10:53.314Z,95.00
2019-02-20T00:15:57.444Z,94.60
2019-02-20T00:21:01.129Z,94.30
2019-02-20T00:26:04.917Z,94.10
2019-02-20T00:31:08.667Z,93.70
2019-02-20T00:36:12.714Z,94.00
2019-02-20T00:41:16.459Z,94.10
2019-02-20T00:46:30.114Z,94.30
2019-02-20T00:51:40.287Z,94.50
2019-02-20T00:56:44.238Z,94.40
2019-02-20T01:01:48.233Z,94.00
2019-02-20T01:06:51.955Z,94.10
2019-02-20T01:11:55.882Z,94.00
2019-02-20T01:16:59.568Z,93.60
2019-02-20T01:22:03.358Z,93.60
2019-02-20T01:27:07.042Z,93.50
2019-02-20T01:32:10.740Z,94.00
2019-02-20T01:37:14.434Z,93.40
2019-02-20T01:42:18.925Z,93.40
2019-02-20T01:47:22.687Z,93.50
2019-02-20T01:52:26.437Z,93.40
2019-02-20T01:57:30.241Z,93.30
2019-02-20T02:02:33.935Z,93.80
2019-02-20T02:07:38.064Z,94.20
2019-02-20T02:12:41.774Z,94.50
2019-02-20T02:17:45.871Z,94.90
2019-02-20T02:22:49.632Z,95.50
2019-02-20T02:27:53.317Z,95.20
2019-02-20T02:32:57.450Z,95.10
2019-02-20T02:38:01.216Z,95.40
2019-02-20T02:43:05.337Z,95.70
2019-02-20T02:48:09.115Z,95.20
2019-02-20T02:53:12.814Z,95.40
2019-02-20T02:58:16.861Z,95.40
2019-02-20T03:03:20.564Z,95.80
2019-02-20T03:08:24.609Z,95.30
2019-02-20T03:13:28.715Z,95.40
2019-02-20T03:18:32.445Z,96.00
2019-02-20T03:23:40.285Z,96.10
2019-02-20T03:28:41.932Z,96.10
2019-02-20T03:33:45.691Z,96.30
2019-02-20T03:38:49.974Z,96.50
2019-02-20T03:43:53.704Z,97.10
2019-02-20T03:48:57.446Z,96.50
2019-02-20T03:54:01.246Z,97.10
2019-02-20T03:59:04.954Z,97.60
2019-02-20T04:04:08.645Z,97.50
2019-02-20T04:09:12.315Z,98.00
2019-02-20T04:14:16.278Z,98.00
2019-02-20T04:19:20.058Z,98.10
2019-02-20T04:24:24.099Z,98.60
2019-02-20T04:29:28.061Z,98.00
2019-02-20T04:34:32.064Z,97.60
2019-02-20T04:39:36.119Z,97.40
2019-02-20T04:44:40.124Z,97.80
2019-02-20T04:49:43.824Z,98.10
2019-02-20T04:54:47.692Z,98.60
2019-02-20T04:59:51.742Z,98.80
2019-02-20T05:04:55.488Z,99.00
2019-02-20T05:09:59.495Z,99.10
2019-02-20T05:15:03.252Z,99.10
2019-02-20T05:20:07.386Z,98.70
2019-02-20T05:25:11.115Z,98.10
2019-02-20T05:30:14.900Z,97.80
2019-02-20T05:35:18.581Z,97.70
2019-02-20T05:40:22.535Z,98.70
2019-02-20T05:45:26.234Z,97.30
2019-02-20T05:50:30.187Z,97.00
2019-02-20T05:55:33.881Z,97.10
2019-02-20T06:00:37.630Z,97.50
2019-02-20T06:05:41.355Z,97.30
2019-02-20T06:10:45.128Z,96.90
2019-02-20T06:15:48.822Z,96.00
2019-02-20T06:20:52.507Z,96.20
2019-02-20T06:25:56.344Z,96.30
2019-02-20T06:31:00.028Z,96.60
2019-02-20T06:36:03.924Z,95.80
2019-02-20T06:41:07.621Z,95.60
2019-02-20T06:46:11.303Z,95.30
2019-02-20T06:51:15.024Z,95.10
2019-02-20T06:56:18.690Z,94.70
2019-02-20T07:01:22.382Z,94.50
2019-02-20T07:06:46.408Z,94.10
2019-02-20T07:12:13.233Z,93.70
2019-02-20T07:17:35.717Z,93.40
2019-02-20T07:23:06.070Z,93.20
2019-02-20T07:28:52.632Z,93.20
2019-02-20T07:33:56.300Z,92.90
2019-02-20T07:39:00.016Z,93.10
2019-02-20T07:44:03.765Z,93.10
2019-02-20T07:49:07.450Z,92.60
2019-02-20T07:54:11.177Z,93.00
2019-02-20T07:59:15.150Z,92.70
2019-02-20T08:04:18.819Z,92.40
2019-02-20T08:09:22.806Z,92.30
2019-02-20T08:14:26.492Z,91.70
2019-02-20T08:19:30.196Z,91.80
2019-02-20T08:24:33.899Z,91.60
2019-02-20T08:29:37.633Z,91.60
2019-02-20T08:34:41.361Z,91.50
2019-02-20T08:39:45.064Z,91.50
2019-02-20T08:44:48.828Z,91.20
2019-02-20T08:49:54.362Z,91.20
2019-02-20T08:54:58.036Z,91.40
2019-02-20T09:00:02.085Z,91.40
2019-02-20T09:05:06.741Z,91.20
2019-02-20T09:10:11.043Z,91.00
2019-02-20T09:15:14.826Z,90.80
2019-02-20T09:20:19.135Z,90.70
2019-02-20T09:25:23.260Z,90.20
2019-02-20T09:30:28.852Z,90.30
2019-02-20T09:35:32.894Z,90.10
2019-02-20T09:40:36.826Z,90.00
2019-02-20T09:45:42.905Z,90.00
2019-02-20T09:50:47.733Z,89.80
2019-02-20T09:55:52.057Z,89.90
2019-02-20T10:00:56.217Z,89.20
2019-02-20T10:05:59.917Z,87.00
2019-02-20T10:11:03.649Z,83.00
2019-02-20T10:16:07.656Z,79.90
2019-02-20T10:21:11.398Z,77.80
2019-02-20T10:26:15.117Z,74.70
2019-02-20T10:31:18.841Z,71.70
2019-02-20T10:36:22.560Z,57.70
2019-02-20T10:41:26.380Z,49.80
2019-02-20T10:46:30.114Z,46.30
2019-02-20T10:51:33.956Z,43.40
2019-02-20T10:56:37.807Z,41.40
2019-02-20T11:01:41.795Z,38.60
2019-02-20T11:06:45.581Z,39.30
2019-02-20T11:11:49.335Z,38.80
2019-02-20T11:16:53.097Z,37.70
2019-02-20T11:21:56.822Z,37.20
2019-02-20T11:27:00.587Z,38.70
2019-02-20T11:32:04.320Z,41.60
2019-02-20T11:37:08.054Z,47.30
2019-02-20T11:42:11.775Z,51.80
2019-02-20T11:47:15.594Z,53.50
2019-02-20T11:52:19.302Z,54.00
2019-02-20T11:57:23.324Z,52.30
2019-02-20T12:02:27.140Z,48.10
2019-02-20T12:07:31.501Z,44.40
2019-02-20T12:12:35.611Z,42.80
2019-02-20T12:17:39.363Z,41.60
2019-02-20T12:22:43.077Z,41.80
2019-02-20T12:27:47.155Z,45.60
2019-02-20T12:32:51.297Z,46.20
2019-02-20T12:37:55.088Z,42.80
2019-02-20T12:42:59.293Z,47.60
2019-02-20T12:48:03.061Z,51.10
2019-02-20T12:53:06.833Z,50.90
2019-02-20T12:58:10.639Z,47.30
2019-02-20T13:03:14.402Z,46.50
2019-02-20T13:08:18.260Z,43.70
2019-02-20T13:13:22.275Z,41.90
2019-02-20T13:18:26.388Z,41.70
2019-02-20T13:23:30.182Z,40.70
2019-02-20T13:28:33.979Z,39.60
2019-02-20T13:33:38.253Z,42.90
2019-02-20T13:38:41.959Z,45.80
2019-02-20T13:43:46.248Z,45.80
2019-02-20T13:48:50.276Z,43.50
2019-02-20T13:53:54.060Z,45.00
2019-02-20T13:58:57.867Z,47.00
2019-02-20T14:04:01.583Z,48.90
2019-02-20T14:09:06.605Z,51.00
2019-02-20T14:14:10.757Z,54.70
2019-02-20T14:19:14.579Z,59.20
2019-02-20T14:24:18.351Z,61.20
2019-02-20T14:29:22.107Z,61.40
2019-02-20T14:34:26.779Z,63.10
2019-02-20T14:39:30.570Z,60.00
2019-02-20T14:44:34.611Z,62.70
2019-02-20T14:49:38.310Z,64.30
2019-02-20T14:54:42.689Z,64.10
2019-02-20T14:59:46.776Z,64.10
2019-02-20T15:04:50.611Z,64.10
2019-02-20T15:09:54.433Z,63.50
2019-02-20T15:14:58.195Z,63.90
2019-02-20T15:20:02.028Z,62.60
2019-02-20T15:25:05.962Z,61.90
2019-02-20T15:30:12.430Z,64.10
2019-02-20T15:35:17.748Z,65.80
2019-02-20T15:40:21.470Z,67.30
2019-02-20T15:45:25.833Z,68.70
2019-02-20T15:50:30.539Z,69.90
2019-02-20T15:55:34.300Z,71.80
2019-02-20T16:00:38.015Z,74.10
2019-02-20T16:05:44.138Z,74.70
2019-02-20T16:10:47.891Z,76.10
2019-02-20T16:15:52.599Z,78.50
2019-02-20T16:20:56.573Z,78.90
2019-02-20T16:26:02.203Z,80.00
2019-02-20T16:31:08.197Z,81.00
2019-02-20T16:36:14.688Z,82.00
2019-02-20T16:41:19.125Z,82.50
2019-02-20T16:46:22.819Z,84.00
2019-02-20T16:51:26.584Z,85.00
2019-02-20T16:56:34.546Z,86.00
2019-02-20T17:01:38.350Z,85.60
2019-02-20T17:06:42.670Z,85.60
2019-02-20T17:11:46.459Z,83.90
2019-02-20T17:16:50.512Z,82.40
2019-02-20T17:21:54.221Z,82.60
2019-02-20T17:26:57.983Z,82.90
2019-02-20T17:32:01.919Z,83.10
2019-02-20T17:37:05.666Z,83.70
2019-02-20T17:42:09.659Z,84.30
2019-02-20T17:47:13.589Z,84.60
2019-02-20T17:52:17.645Z,85.30
2019-02-20T17:57:21.644Z,86.40
2019-02-20T18:02:26.258Z,86.90
2019-02-20T18:07:29.953Z,87.10
2019-02-20T18:12:33.637Z,87.80
2019-02-20T18:17:37.653Z,86.50
2019-02-20T18:22:43.613Z,87.00
2019-02-20T18:27:47.041Z,87.80
2019-02-20T18:32:51.580Z,89.50
2019-02-20T18:37:55.414Z,89.40
2019-02-20T18:42:59.547Z,90.00
2019-02-20T18:48:03.309Z,90.50
2019-02-20T18:53:07.129Z,90.90
2019-02-20T18:58:10.829Z,91.50
2019-02-20T19:03:14.520Z,92.20
2019-02-20T19:08:50.871Z,92.60
2019-02-20T19:14:02.732Z,92.90
2019-02-20T19:19:48.337Z,93.30
2019-02-20T19:25:46.056Z,93.60
2019-02-20T19:31:46.692Z,93.90
2019-02-20T19:37:23.832Z,94.10
2019-02-20T19:42:39.407Z,93.50
2019-02-20T19:48:16.047Z,93.50
2019-02-20T19:53:49.279Z,93.10
2019-02-20T19:59:29.675Z,92.80
2019-02-20T20:05:16.519Z,92.90
2019-02-20T20:10:41.756Z,93.40
2019-02-20T20:16:17.590Z,93.70
2019-02-20T20:21:50.134Z,93.20
2019-02-20T20:27:20.011Z,93.30
2019-02-20T20:32:52.627Z,93.80
2019-02-20T20:38:31.928Z,93.30
2019-02-20T20:44:10.871Z,93.10
2019-02-20T20:49:34.548Z,93.00
2019-02-20T20:55:26.800Z,93.10
2019-02-20T21:01:04.794Z,93.10
2019-02-20T21:06:34.257Z,93.20
2019-02-20T21:11:55.152Z,93.00
2019-02-20T21:17:40.189Z,93.30
2019-02-20T21:23:25.705Z,93.30
2019-02-20T21:28:48.796Z,93.50
2019-02-20T21:34:24.510Z,93.80
2019-02-20T21:39:46.613Z,93.80
2019-02-20T21:45:09.588Z,94.20
2019-02-20T21:50:40.880Z,94.20
2019-02-20T21:56:18.213Z,94.50
2019-02-20T22:01:34.912Z,94.70
2019-02-20T22:06:58.705Z,94.60
2019-02-20T22:12:36.688Z,95.00
2019-02-20T22:18:13.810Z,95.20
2019-02-20T22:23:54.936Z,95.30
2019-02-20T22:29:27.039Z,94.80
2019-02-20T22:34:55.804Z,95.20
2019-02-20T22:40:23.165Z,95.00
2019-02-20T22:45:35.536Z,94.80
2019-02-20T22:50:57.910Z,94.60
2019-02-20T22:56:30.799Z,94.80
2019-02-20T23:02:28.886Z,94.50
2019-02-20T23:07:58.587Z,94.50
2019-02-20T23:13:42.227Z,94.70
2019-02-20T23:18:45.941Z,94.70
2019-02-20T23:23:49.925Z,95.10
2019-02-20T23:28:53.644Z,95.10
2019-02-20T23:33:57.710Z,95.30
2019-02-20T23:39:01.455Z,95.80
2019-02-20T23:44:05.168Z,95.70
2019-02-20T23:49:08.879Z,95.80
2019-02-20T23:54:12.771Z,95.80
2019-02-20T23:59:17.348Z,95.70
